sensor_id;sensor_type;location;lat;lon;timestamp;P1;durP1;ratioP1;P2;durP2;ratioP2
5219;SDS011;2629;50.768;7.308;2022-09-12T00:01:23;38.53;;;18.03;;
5219;SDS011;2629;50.768;7.308;2022-09-12T00:03:52;37.33;;;16.40;;
5219;SDS011;2629;50.768;7.308;2022-09-12T00:06:22;42.00;;;17.17;;
5219;SDS011;2629;50.768;7.308;2022-09-12T00:08:52;46.10;;;16.50;;
5219;SDS011;2629;50.768;7.308;2022-09-12T00:11:21;41.17;;;16.47;;
5219;SDS011;2629;50.768;7.308;2022-09-12T00:13:50;36.90;;;16.87;;
5219;SDS011;2629;50.768;7.308;2022-09-12T00:16:19;37.63;;;16.80;;
5219;SDS011;2629;50.768;7.308;2022-09-12T00:18:49;42.87;;;16.70;;
5219;SDS011;2629;50.768;7.308;2022-09-12T00:21:19;42.23;;;16.90;;
5219;SDS011;2629;50.768;7.308;2022-09-12T00:23:48;33.73;;;16.30;;
5219;SDS011;2629;50.768;7.308;2022-09-12T00:26:18;38.30;;;18.00;;
5219;SDS011;2629;50.768;7.308;2022-09-12T00:28:47;47.60;;;16.40;;
5219;SDS011;2629;50.768;7.308;2022-09-12T00:31:17;35.77;;;17.17;;
5219;SDS011;2629;50.768;7.308;2022-09-12T00:33:46;41.00;;;15.40;;
5219;SDS011;2629;50.768;7.308;2022-09-12T00:36:17;37.63;;;15.40;;
5219;SDS011;2629;50.768;7.308;2022-09-12T00:38:46;40.77;;;17.33;;
5219;SDS011;2629;50.768;7.308;2022-09-12T00:41:16;41.70;;;17.47;;
5219;SDS011;2629;50.768;7.308;2022-09-12T00:43:45;41.03;;;16.00;;
5219;SDS011;2629;50.768;7.308;2022-09-12T00:46:21;33.03;;;15.20;;
5219;SDS011;2629;50.768;7.308;2022-09-12T00:48:54;33.70;;;16.43;;
5219;SDS011;2629;50.768;7.308;2022-09-12T00:51:25;36.73;;;15.73;;
5219;SDS011;2629;50.768;7.308;2022-09-12T00:53:54;47.50;;;16.90;;
5219;SDS011;2629;50.768;7.308;2022-09-12T00:56:24;41.80;;;16.57;;
5219;SDS011;2629;50.768;7.308;2022-09-12T00:58:55;41.53;;;16.23;;
5219;SDS011;2629;50.768;7.308;2022-09-12T01:01:25;36.00;;;15.27;;
5219;SDS011;2629;50.768;7.308;2022-09-12T01:03:58;32.50;;;15.10;;
5219;SDS011;2629;50.768;7.308;2022-09-12T01:06:31;42.20;;;17.33;;
5219;SDS011;2629;50.768;7.308;2022-09-12T01:09:02;42.67;;;16.30;;
5219;SDS011;2629;50.768;7.308;2022-09-12T01:11:31;29.03;;;15.30;;
5219;SDS011;2629;50.768;7.308;2022-09-12T01:14:04;33.17;;;14.23;;
5219;SDS011;2629;50.768;7.308;2022-09-12T01:16:33;38.83;;;14.77;;
5219;SDS011;2629;50.768;7.308;2022-09-12T01:19:07;35.40;;;16.00;;
5219;SDS011;2629;50.768;7.308;2022-09-12T01:21:43;38.47;;;15.90;;
5219;SDS011;2629;50.768;7.308;2022-09-12T01:24:24;38.30;;;14.40;;
5219;SDS011;2629;50.768;7.308;2022-09-12T01:29:58;38.47;;;15.93;;
5219;SDS011;2629;50.768;7.308;2022-09-12T01:32:33;38.13;;;16.73;;
5219;SDS011;2629;50.768;7.308;2022-09-12T01:35:04;42.80;;;16.60;;
5219;SDS011;2629;50.768;7.308;2022-09-12T01:37:36;39.97;;;16.10;;
5219;SDS011;2629;50.768;7.308;2022-09-12T01:40:09;30.70;;;14.37;;
5219;SDS011;2629;50.768;7.308;2022-09-12T01:42:42;29.87;;;15.53;;
5219;SDS011;2629;50.768;7.308;2022-09-12T01:45:15;35.47;;;15.70;;
5219;SDS011;2629;50.768;7.308;2022-09-12T01:47:48;32.47;;;15.13;;
5219;SDS011;2629;50.768;7.308;2022-09-12T01:50:17;29.53;;;14.27;;
5219;SDS011;2629;50.768;7.308;2022-09-12T01:52:48;36.30;;;15.37;;
5219;SDS011;2629;50.768;7.308;2022-09-12T01:55:18;31.17;;;15.20;;
5219;SDS011;2629;50.768;7.308;2022-09-12T01:57:48;28.33;;;16.20;;
5219;SDS011;2629;50.768;7.308;2022-09-12T02:00:19;35.40;;;15.80;;
5219;SDS011;2629;50.768;7.308;2022-09-12T02:02:50;33.47;;;16.60;;
5219;SDS011;2629;50.768;7.308;2022-09-12T02:05:21;40.67;;;15.50;;
5219;SDS011;2629;50.768;7.308;2022-09-12T02:07:52;28.80;;;14.27;;
5219;SDS011;2629;50.768;7.308;2022-09-12T02:10:23;33.77;;;15.00;;
5219;SDS011;2629;50.768;7.308;2022-09-12T02:13:00;33.70;;;16.80;;
5219;SDS011;2629;50.768;7.308;2022-09-12T02:15:31;29.97;;;13.27;;
5219;SDS011;2629;50.768;7.308;2022-09-12T02:18:04;30.20;;;13.73;;
5219;SDS011;2629;50.768;7.308;2022-09-12T02:20:33;35.80;;;14.23;;
5219;SDS011;2629;50.768;7.308;2022-09-12T02:23:16;29.23;;;13.33;;
5219;SDS011;2629;50.768;7.308;2022-09-12T02:25:46;29.70;;;14.33;;
5219;SDS011;2629;50.768;7.308;2022-09-12T02:28:17;29.03;;;14.10;;
5219;SDS011;2629;50.768;7.308;2022-09-12T02:30:49;30.17;;;14.53;;
5219;SDS011;2629;50.768;7.308;2022-09-12T02:33:22;29.20;;;14.13;;
5219;SDS011;2629;50.768;7.308;2022-09-12T02:35:52;34.77;;;15.67;;
5219;SDS011;2629;50.768;7.308;2022-09-12T02:38:24;46.27;;;15.07;;
5219;SDS011;2629;50.768;7.308;2022-09-12T02:40:55;39.27;;;13.83;;
5219;SDS011;2629;50.768;7.308;2022-09-12T02:43:24;30.80;;;15.93;;
5219;SDS011;2629;50.768;7.308;2022-09-12T02:45:52;29.60;;;13.30;;
5219;SDS011;2629;50.768;7.308;2022-09-12T02:48:24;33.87;;;15.00;;
5219;SDS011;2629;50.768;7.308;2022-09-12T02:50:54;36.10;;;15.20;;
5219;SDS011;2629;50.768;7.308;2022-09-12T02:53:24;38.37;;;14.37;;
5219;SDS011;2629;50.768;7.308;2022-09-12T02:56:00;30.00;;;13.90;;
5219;SDS011;2629;50.768;7.308;2022-09-12T02:58:29;32.20;;;15.63;;
5219;SDS011;2629;50.768;7.308;2022-09-12T03:00:59;31.77;;;14.37;;
5219;SDS011;2629;50.768;7.308;2022-09-12T03:03:37;41.83;;;16.00;;
5219;SDS011;2629;50.768;7.308;2022-09-12T03:06:12;34.73;;;15.63;;
5219;SDS011;2629;50.768;7.308;2022-09-12T03:08:48;28.97;;;14.60;;
5219;SDS011;2629;50.768;7.308;2022-09-12T03:11:21;37.60;;;14.67;;
5219;SDS011;2629;50.768;7.308;2022-09-12T03:13:55;32.20;;;15.00;;
5219;SDS011;2629;50.768;7.308;2022-09-12T03:16:26;33.43;;;13.83;;
5219;SDS011;2629;50.768;7.308;2022-09-12T03:18:59;34.67;;;16.10;;
5219;SDS011;2629;50.768;7.308;2022-09-12T03:21:32;34.53;;;15.30;;
5219;SDS011;2629;50.768;7.308;2022-09-12T03:24:04;29.83;;;14.50;;
5219;SDS011;2629;50.768;7.308;2022-09-12T03:26:37;35.03;;;15.37;;
5219;SDS011;2629;50.768;7.308;2022-09-12T03:29:07;32.63;;;15.17;;
5219;SDS011;2629;50.768;7.308;2022-09-12T03:31:36;34.37;;;15.60;;
5219;SDS011;2629;50.768;7.308;2022-09-12T03:34:06;35.57;;;15.20;;
5219;SDS011;2629;50.768;7.308;2022-09-12T03:36:38;33.10;;;14.57;;
5219;SDS011;2629;50.768;7.308;2022-09-12T03:39:07;41.20;;;15.60;;
5219;SDS011;2629;50.768;7.308;2022-09-12T03:41:36;37.67;;;16.57;;
5219;SDS011;2629;50.768;7.308;2022-09-12T03:44:04;32.53;;;15.07;;
5219;SDS011;2629;50.768;7.308;2022-09-12T03:46:33;43.00;;;16.43;;
5219;SDS011;2629;50.768;7.308;2022-09-12T03:49:02;36.40;;;14.90;;
5219;SDS011;2629;50.768;7.308;2022-09-12T03:51:32;35.73;;;15.00;;
5219;SDS011;2629;50.768;7.308;2022-09-12T03:54:01;33.33;;;14.97;;
5219;SDS011;2629;50.768;7.308;2022-09-12T03:56:30;30.03;;;15.07;;
5219;SDS011;2629;50.768;7.308;2022-09-12T03:58:58;29.17;;;13.33;;
5219;SDS011;2629;50.768;7.308;2022-09-12T04:01:27;29.53;;;13.10;;
5219;SDS011;2629;50.768;7.308;2022-09-12T04:03:55;33.77;;;16.83;;
5219;SDS011;2629;50.768;7.308;2022-09-12T04:06:24;35.37;;;16.10;;
5219;SDS011;2629;50.768;7.308;2022-09-12T04:08:54;29.83;;;15.20;;
5219;SDS011;2629;50.768;7.308;2022-09-12T04:11:22;27.47;;;14.03;;
5219;SDS011;2629;50.768;7.308;2022-09-12T04:13:51;32.40;;;13.43;;
5219;SDS011;2629;50.768;7.308;2022-09-12T04:16:19;31.47;;;14.30;;
5219;SDS011;2629;50.768;7.308;2022-09-12T04:18:48;31.90;;;14.10;;
5219;SDS011;2629;50.768;7.308;2022-09-12T04:21:18;26.73;;;14.07;;
5219;SDS011;2629;50.768;7.308;2022-09-12T04:23:47;30.90;;;14.00;;
5219;SDS011;2629;50.768;7.308;2022-09-12T04:26:17;21.67;;;13.20;;
5219;SDS011;2629;50.768;7.308;2022-09-12T04:28:46;25.57;;;12.80;;
5219;SDS011;2629;50.768;7.308;2022-09-12T04:31:16;27.47;;;13.73;;
5219;SDS011;2629;50.768;7.308;2022-09-12T04:33:51;28.20;;;13.50;;
5219;SDS011;2629;50.768;7.308;2022-09-12T04:36:20;24.67;;;12.73;;
5219;SDS011;2629;50.768;7.308;2022-09-12T04:38:49;26.50;;;13.70;;
5219;SDS011;2629;50.768;7.308;2022-09-12T04:41:20;22.40;;;13.27;;
5219;SDS011;2629;50.768;7.308;2022-09-12T04:43:50;22.30;;;11.47;;
5219;SDS011;2629;50.768;7.308;2022-09-12T04:46:19;22.30;;;11.97;;
5219;SDS011;2629;50.768;7.308;2022-09-12T04:48:48;25.67;;;13.87;;
5219;SDS011;2629;50.768;7.308;2022-09-12T04:51:22;23.53;;;12.30;;
5219;SDS011;2629;50.768;7.308;2022-09-12T04:53:53;25.47;;;13.03;;
5219;SDS011;2629;50.768;7.308;2022-09-12T04:56:24;24.13;;;12.27;;
5219;SDS011;2629;50.768;7.308;2022-09-12T04:58:55;24.33;;;12.33;;
5219;SDS011;2629;50.768;7.308;2022-09-12T05:01:24;31.87;;;13.33;;
5219;SDS011;2629;50.768;7.308;2022-09-12T05:03:53;24.20;;;11.83;;
5219;SDS011;2629;50.768;7.308;2022-09-12T05:06:23;21.57;;;11.57;;
5219;SDS011;2629;50.768;7.308;2022-09-12T05:08:53;23.23;;;11.93;;
5219;SDS011;2629;50.768;7.308;2022-09-12T05:11:25;23.33;;;11.47;;
5219;SDS011;2629;50.768;7.308;2022-09-12T05:14:19;25.40;;;12.77;;
5219;SDS011;2629;50.768;7.308;2022-09-12T05:16:48;20.53;;;12.33;;
5219;SDS011;2629;50.768;7.308;2022-09-12T05:19:17;27.83;;;12.50;;
5219;SDS011;2629;50.768;7.308;2022-09-12T05:21:47;22.53;;;12.33;;
5219;SDS011;2629;50.768;7.308;2022-09-12T05:24:16;21.33;;;11.23;;
5219;SDS011;2629;50.768;7.308;2022-09-12T05:26:46;24.93;;;12.27;;
5219;SDS011;2629;50.768;7.308;2022-09-12T05:29:15;27.57;;;10.93;;
5219;SDS011;2629;50.768;7.308;2022-09-12T05:31:44;24.57;;;11.60;;
5219;SDS011;2629;50.768;7.308;2022-09-12T05:34:18;22.83;;;11.53;;
5219;SDS011;2629;50.768;7.308;2022-09-12T05:36:47;18.67;;;10.60;;
5219;SDS011;2629;50.768;7.308;2022-09-12T05:39:16;26.97;;;12.23;;
5219;SDS011;2629;50.768;7.308;2022-09-12T05:41:46;21.77;;;11.90;;
5219;SDS011;2629;50.768;7.308;2022-09-12T05:44:15;16.67;;;10.30;;
5219;SDS011;2629;50.768;7.308;2022-09-12T05:46:43;18.83;;;10.50;;
5219;SDS011;2629;50.768;7.308;2022-09-12T05:49:16;23.13;;;10.73;;
5219;SDS011;2629;50.768;7.308;2022-09-12T05:51:44;16.70;;;10.00;;
5219;SDS011;2629;50.768;7.308;2022-09-12T05:54:13;17.57;;;9.40;;
5219;SDS011;2629;50.768;7.308;2022-09-12T05:56:43;19.20;;;10.20;;
5219;SDS011;2629;50.768;7.308;2022-09-12T05:59:19;19.50;;;9.43;;
5219;SDS011;2629;50.768;7.308;2022-09-12T06:01:49;16.43;;;10.20;;
5219;SDS011;2629;50.768;7.308;2022-09-12T06:04:18;14.20;;;8.00;;
5219;SDS011;2629;50.768;7.308;2022-09-12T06:06:46;13.10;;;8.60;;
5219;SDS011;2629;50.768;7.308;2022-09-12T06:09:16;15.23;;;9.40;;
5219;SDS011;2629;50.768;7.308;2022-09-12T06:11:45;14.47;;;8.50;;
5219;SDS011;2629;50.768;7.308;2022-09-12T06:14:14;21.53;;;9.37;;
5219;SDS011;2629;50.768;7.308;2022-09-12T06:16:44;13.97;;;8.67;;
5219;SDS011;2629;50.768;7.308;2022-09-12T06:19:14;14.73;;;8.53;;
5219;SDS011;2629;50.768;7.308;2022-09-12T06:21:44;12.73;;;8.20;;
5219;SDS011;2629;50.768;7.308;2022-09-12T06:24:13;11.83;;;7.00;;
5219;SDS011;2629;50.768;7.308;2022-09-12T06:26:43;15.83;;;9.40;;
5219;SDS011;2629;50.768;7.308;2022-09-12T06:29:12;12.27;;;7.93;;
5219;SDS011;2629;50.768;7.308;2022-09-12T06:31:42;15.73;;;7.60;;
5219;SDS011;2629;50.768;7.308;2022-09-12T06:34:12;15.87;;;7.67;;
5219;SDS011;2629;50.768;7.308;2022-09-12T06:36:42;15.93;;;7.60;;
5219;SDS011;2629;50.768;7.308;2022-09-12T06:39:12;11.23;;;7.27;;
5219;SDS011;2629;50.768;7.308;2022-09-12T06:41:41;17.10;;;7.93;;
5219;SDS011;2629;50.768;7.308;2022-09-12T06:44:11;13.07;;;7.87;;
5219;SDS011;2629;50.768;7.308;2022-09-12T06:46:41;12.23;;;7.43;;
5219;SDS011;2629;50.768;7.308;2022-09-12T06:49:12;10.13;;;7.10;;
5219;SDS011;2629;50.768;7.308;2022-09-12T06:51:40;15.03;;;7.00;;
5219;SDS011;2629;50.768;7.308;2022-09-12T06:54:11;11.90;;;6.97;;
5219;SDS011;2629;50.768;7.308;2022-09-12T06:56:39;11.97;;;7.27;;
5219;SDS011;2629;50.768;7.308;2022-09-12T06:59:08;11.33;;;6.97;;
5219;SDS011;2629;50.768;7.308;2022-09-12T07:01:37;14.20;;;9.53;;
5219;SDS011;2629;50.768;7.308;2022-09-12T07:04:06;13.17;;;6.70;;
5219;SDS011;2629;50.768;7.308;2022-09-12T07:06:37;11.43;;;6.67;;
5219;SDS011;2629;50.768;7.308;2022-09-12T07:09:06;12.43;;;7.87;;
5219;SDS011;2629;50.768;7.308;2022-09-12T07:11:37;10.20;;;6.93;;
5219;SDS011;2629;50.768;7.308;2022-09-12T07:14:07;10.37;;;6.70;;
5219;SDS011;2629;50.768;7.308;2022-09-12T07:16:36;10.77;;;7.13;;
5219;SDS011;2629;50.768;7.308;2022-09-12T07:19:05;14.37;;;8.03;;
5219;SDS011;2629;50.768;7.308;2022-09-12T07:21:34;12.80;;;6.43;;
5219;SDS011;2629;50.768;7.308;2022-09-12T07:24:08;11.50;;;7.07;;
5219;SDS011;2629;50.768;7.308;2022-09-12T07:26:37;11.60;;;7.60;;
5219;SDS011;2629;50.768;7.308;2022-09-12T07:29:08;10.83;;;6.60;;
5219;SDS011;2629;50.768;7.308;2022-09-12T07:32:00;10.30;;;6.93;;
5219;SDS011;2629;50.768;7.308;2022-09-12T07:34:29;11.43;;;7.97;;
5219;SDS011;2629;50.768;7.308;2022-09-12T07:36:58;12.00;;;5.90;;
5219;SDS011;2629;50.768;7.308;2022-09-12T07:39:28;11.17;;;6.57;;
5219;SDS011;2629;50.768;7.308;2022-09-12T07:41:56;10.10;;;6.60;;
5219;SDS011;2629;50.768;7.308;2022-09-12T07:44:25;10.93;;;6.70;;
5219;SDS011;2629;50.768;7.308;2022-09-12T07:46:54;8.77;;;5.97;;
5219;SDS011;2629;50.768;7.308;2022-09-12T07:49:23;9.50;;;7.00;;
5219;SDS011;2629;50.768;7.308;2022-09-12T07:51:51;11.80;;;6.60;;
5219;SDS011;2629;50.768;7.308;2022-09-12T07:54:20;16.70;;;6.83;;
5219;SDS011;2629;50.768;7.308;2022-09-12T07:56:50;11.70;;;6.60;;
5219;SDS011;2629;50.768;7.308;2022-09-12T07:59:19;14.67;;;7.33;;
5219;SDS011;2629;50.768;7.308;2022-09-12T08:02:09;12.37;;;7.73;;
5219;SDS011;2629;50.768;7.308;2022-09-12T08:04:43;8.53;;;6.40;;
5219;SDS011;2629;50.768;7.308;2022-09-12T08:07:12;10.30;;;6.63;;
5219;SDS011;2629;50.768;7.308;2022-09-12T08:09:40;11.57;;;6.73;;
5219;SDS011;2629;50.768;7.308;2022-09-12T08:12:10;8.57;;;6.07;;
5219;SDS011;2629;50.768;7.308;2022-09-12T08:14:39;9.13;;;6.20;;
5219;SDS011;2629;50.768;7.308;2022-09-12T08:17:07;9.93;;;6.73;;
5219;SDS011;2629;50.768;7.308;2022-09-12T08:19:36;9.60;;;6.30;;
5219;SDS011;2629;50.768;7.308;2022-09-12T08:22:04;8.80;;;6.07;;
5219;SDS011;2629;50.768;7.308;2022-09-12T08:24:33;13.10;;;6.70;;
5219;SDS011;2629;50.768;7.308;2022-09-12T08:27:02;11.10;;;7.50;;
5219;SDS011;2629;50.768;7.308;2022-09-12T08:29:32;9.60;;;6.33;;
5219;SDS011;2629;50.768;7.308;2022-09-12T08:32:01;11.43;;;6.37;;
5219;SDS011;2629;50.768;7.308;2022-09-12T08:34:30;10.63;;;5.83;;
5219;SDS011;2629;50.768;7.308;2022-09-12T08:36:59;8.93;;;6.13;;
5219;SDS011;2629;50.768;7.308;2022-09-12T08:39:27;8.73;;;6.00;;
5219;SDS011;2629;50.768;7.308;2022-09-12T08:41:57;9.97;;;6.03;;
5219;SDS011;2629;50.768;7.308;2022-09-12T08:47:21;9.80;;;6.20;;
5219;SDS011;2629;50.768;7.308;2022-09-12T08:49:57;10.87;;;6.60;;
5219;SDS011;2629;50.768;7.308;2022-09-12T08:52:28;8.00;;;5.20;;
5219;SDS011;2629;50.768;7.308;2022-09-12T08:54:58;9.27;;;5.70;;
5219;SDS011;2629;50.768;7.308;2022-09-12T08:57:28;8.40;;;5.43;;
5219;SDS011;2629;50.768;7.308;2022-09-12T08:59:56;9.00;;;7.17;;
5219;SDS011;2629;50.768;7.308;2022-09-12T09:05:21;9.07;;;5.90;;
5219;SDS011;2629;50.768;7.308;2022-09-12T09:07:56;8.50;;;6.17;;
5219;SDS011;2629;50.768;7.308;2022-09-12T09:10:29;7.90;;;5.93;;
5219;SDS011;2629;50.768;7.308;2022-09-12T09:13:00;8.37;;;5.90;;
5219;SDS011;2629;50.768;7.308;2022-09-12T09:15:37;7.43;;;5.33;;
5219;SDS011;2629;50.768;7.308;2022-09-12T09:18:09;7.13;;;5.73;;
5219;SDS011;2629;50.768;7.308;2022-09-12T09:20:42;7.10;;;5.70;;
5219;SDS011;2629;50.768;7.308;2022-09-12T09:23:13;7.97;;;5.63;;
5219;SDS011;2629;50.768;7.308;2022-09-12T09:25:45;6.83;;;5.07;;
5219;SDS011;2629;50.768;7.308;2022-09-12T09:28:17;8.10;;;5.70;;
5219;SDS011;2629;50.768;7.308;2022-09-12T09:30:47;7.40;;;5.60;;
5219;SDS011;2629;50.768;7.308;2022-09-12T09:33:17;7.07;;;5.47;;
5219;SDS011;2629;50.768;7.308;2022-09-12T09:35:50;8.23;;;5.30;;
5219;SDS011;2629;50.768;7.308;2022-09-12T09:38:23;7.83;;;5.93;;
5219;SDS011;2629;50.768;7.308;2022-09-12T09:40:56;9.83;;;5.23;;
5219;SDS011;2629;50.768;7.308;2022-09-12T09:43:26;6.30;;;4.33;;
5219;SDS011;2629;50.768;7.308;2022-09-12T09:45:55;6.80;;;5.33;;
5219;SDS011;2629;50.768;7.308;2022-09-12T09:48:26;7.17;;;5.70;;
5219;SDS011;2629;50.768;7.308;2022-09-12T09:50:57;6.33;;;4.73;;
5219;SDS011;2629;50.768;7.308;2022-09-12T09:53:30;7.50;;;5.60;;
5219;SDS011;2629;50.768;7.308;2022-09-12T09:56:01;6.50;;;5.00;;
5219;SDS011;2629;50.768;7.308;2022-09-12T09:58:31;7.50;;;5.10;;
5219;SDS011;2629;50.768;7.308;2022-09-12T10:01:01;6.97;;;4.77;;
5219;SDS011;2629;50.768;7.308;2022-09-12T10:03:32;7.23;;;4.80;;
5219;SDS011;2629;50.768;7.308;2022-09-12T10:06:05;9.23;;;5.20;;
5219;SDS011;2629;50.768;7.308;2022-09-12T10:08:35;8.43;;;4.93;;
5219;SDS011;2629;50.768;7.308;2022-09-12T10:11:04;6.93;;;5.20;;
5219;SDS011;2629;50.768;7.308;2022-09-12T10:13:38;6.87;;;5.20;;
5219;SDS011;2629;50.768;7.308;2022-09-12T10:16:16;7.20;;;5.17;;
5219;SDS011;2629;50.768;7.308;2022-09-12T10:18:45;6.47;;;4.90;;
5219;SDS011;2629;50.768;7.308;2022-09-12T10:21:20;7.27;;;4.93;;
5219;SDS011;2629;50.768;7.308;2022-09-12T10:23:56;5.97;;;4.67;;
5219;SDS011;2629;50.768;7.308;2022-09-12T10:26:26;7.30;;;5.23;;
5219;SDS011;2629;50.768;7.308;2022-09-12T10:29:02;6.93;;;4.43;;
5219;SDS011;2629;50.768;7.308;2022-09-12T10:31:34;5.30;;;4.40;;
5219;SDS011;2629;50.768;7.308;2022-09-12T10:34:04;8.73;;;4.60;;
5219;SDS011;2629;50.768;7.308;2022-09-12T10:36:37;6.60;;;4.73;;
5219;SDS011;2629;50.768;7.308;2022-09-12T10:39:11;6.43;;;3.97;;
5219;SDS011;2629;50.768;7.308;2022-09-12T10:41:43;5.67;;;4.40;;
5219;SDS011;2629;50.768;7.308;2022-09-12T10:44:13;5.10;;;3.83;;
5219;SDS011;2629;50.768;7.308;2022-09-12T10:46:42;5.70;;;3.70;;
5219;SDS011;2629;50.768;7.308;2022-09-12T10:49:20;5.20;;;4.07;;
5219;SDS011;2629;50.768;7.308;2022-09-12T10:51:50;4.07;;;3.40;;
5219;SDS011;2629;50.768;7.308;2022-09-12T10:54:20;5.07;;;4.20;;
5219;SDS011;2629;50.768;7.308;2022-09-12T10:56:53;5.50;;;3.80;;
5219;SDS011;2629;50.768;7.308;2022-09-12T10:59:24;5.80;;;3.90;;
5219;SDS011;2629;50.768;7.308;2022-09-12T11:02:00;6.03;;;3.90;;
5219;SDS011;2629;50.768;7.308;2022-09-12T11:04:38;4.90;;;3.40;;
5219;SDS011;2629;50.768;7.308;2022-09-12T11:07:16;4.17;;;2.70;;
5219;SDS011;2629;50.768;7.308;2022-09-12T11:09:48;4.73;;;3.13;;
5219;SDS011;2629;50.768;7.308;2022-09-12T11:12:22;4.80;;;2.77;;
5219;SDS011;2629;50.768;7.308;2022-09-12T11:14:57;4.40;;;3.27;;
5219;SDS011;2629;50.768;7.308;2022-09-12T11:17:32;4.53;;;3.07;;
5219;SDS011;2629;50.768;7.308;2022-09-12T11:20:11;6.43;;;2.97;;
5219;SDS011;2629;50.768;7.308;2022-09-12T11:22:51;5.63;;;3.40;;
5219;SDS011;2629;50.768;7.308;2022-09-12T11:25:27;5.63;;;3.17;;
5219;SDS011;2629;50.768;7.308;2022-09-12T11:27:59;4.47;;;3.03;;
5219;SDS011;2629;50.768;7.308;2022-09-12T11:30:31;3.60;;;2.80;;
5219;SDS011;2629;50.768;7.308;2022-09-12T11:33:04;4.37;;;3.00;;
5219;SDS011;2629;50.768;7.308;2022-09-12T11:35:36;4.43;;;2.83;;
5219;SDS011;2629;50.768;7.308;2022-09-12T11:38:22;3.77;;;3.03;;
5219;SDS011;2629;50.768;7.308;2022-09-12T11:40:53;4.27;;;2.50;;
5219;SDS011;2629;50.768;7.308;2022-09-12T11:43:24;4.23;;;2.80;;
5219;SDS011;2629;50.768;7.308;2022-09-12T11:45:54;9.00;;;2.60;;
5219;SDS011;2629;50.768;7.308;2022-09-12T11:48:31;3.30;;;2.60;;
5219;SDS011;2629;50.768;7.308;2022-09-12T11:51:03;4.40;;;2.73;;
5219;SDS011;2629;50.768;7.308;2022-09-12T11:53:35;3.87;;;2.33;;
5219;SDS011;2629;50.768;7.308;2022-09-12T11:56:07;3.10;;;2.27;;
5219;SDS011;2629;50.768;7.308;2022-09-12T11:58:42;3.30;;;2.33;;
5219;SDS011;2629;50.768;7.308;2022-09-12T12:01:13;4.03;;;2.03;;
5219;SDS011;2629;50.768;7.308;2022-09-12T12:03:43;3.60;;;2.27;;
5219;SDS011;2629;50.768;7.308;2022-09-12T12:06:13;3.47;;;2.30;;
5219;SDS011;2629;50.768;7.308;2022-09-12T12:08:46;3.20;;;2.13;;
5219;SDS011;2629;50.768;7.308;2022-09-12T12:11:23;4.33;;;1.80;;
5219;SDS011;2629;50.768;7.308;2022-09-12T12:13:54;3.97;;;2.17;;
5219;SDS011;2629;50.768;7.308;2022-09-12T12:16:24;4.43;;;2.90;;
5219;SDS011;2629;50.768;7.308;2022-09-12T12:18:54;3.17;;;2.00;;
5219;SDS011;2629;50.768;7.308;2022-09-12T12:21:34;6.00;;;2.33;;
5219;SDS011;2629;50.768;7.308;2022-09-12T12:24:12;4.20;;;2.13;;
5219;SDS011;2629;50.768;7.308;2022-09-12T12:26:43;2.80;;;1.83;;
5219;SDS011;2629;50.768;7.308;2022-09-12T12:29:34;4.50;;;1.93;;
5219;SDS011;2629;50.768;7.308;2022-09-12T12:32:19;2.57;;;1.80;;
5219;SDS011;2629;50.768;7.308;2022-09-12T12:34:48;3.03;;;2.07;;
5219;SDS011;2629;50.768;7.308;2022-09-12T12:40:08;4.80;;;2.40;;
5219;SDS011;2629;50.768;7.308;2022-09-12T12:48:42;3.97;;;2.20;;
5219;SDS011;2629;50.768;7.308;2022-09-12T12:51:15;3.30;;;2.13;;
5219;SDS011;2629;50.768;7.308;2022-09-12T12:53:46;3.47;;;2.10;;
5219;SDS011;2629;50.768;7.308;2022-09-12T12:56:27;3.00;;;1.73;;
5219;SDS011;2629;50.768;7.308;2022-09-12T12:58:56;3.10;;;1.80;;
5219;SDS011;2629;50.768;7.308;2022-09-12T13:01:26;4.00;;;1.77;;
5219;SDS011;2629;50.768;7.308;2022-09-12T13:03:55;3.00;;;1.97;;
5219;SDS011;2629;50.768;7.308;2022-09-12T13:06:28;3.67;;;1.73;;
5219;SDS011;2629;50.768;7.308;2022-09-12T13:08:59;3.00;;;1.90;;
5219;SDS011;2629;50.768;7.308;2022-09-12T13:11:31;3.40;;;2.10;;
5219;SDS011;2629;50.768;7.308;2022-09-12T13:14:02;3.20;;;2.00;;
5219;SDS011;2629;50.768;7.308;2022-09-12T13:16:33;3.63;;;1.83;;
5219;SDS011;2629;50.768;7.308;2022-09-12T13:19:03;3.30;;;2.07;;
5219;SDS011;2629;50.768;7.308;2022-09-12T13:21:32;6.33;;;2.60;;
5219;SDS011;2629;50.768;7.308;2022-09-12T13:24:02;7.43;;;2.30;;
5219;SDS011;2629;50.768;7.308;2022-09-12T13:26:40;3.70;;;2.20;;
5219;SDS011;2629;50.768;7.308;2022-09-12T13:29:11;3.20;;;2.40;;
5219;SDS011;2629;50.768;7.308;2022-09-12T13:31:40;3.70;;;2.47;;
5219;SDS011;2629;50.768;7.308;2022-09-12T13:34:15;3.80;;;2.43;;
5219;SDS011;2629;50.768;7.308;2022-09-12T13:36:48;6.17;;;2.70;;
5219;SDS011;2629;50.768;7.308;2022-09-12T13:39:23;3.77;;;2.40;;
5219;SDS011;2629;50.768;7.308;2022-09-12T13:44:42;4.80;;;2.10;;
5219;SDS011;2629;50.768;7.308;2022-09-12T13:47:12;3.37;;;2.40;;
5219;SDS011;2629;50.768;7.308;2022-09-12T13:49:42;3.23;;;2.47;;
5219;SDS011;2629;50.768;7.308;2022-09-12T13:52:14;3.73;;;2.50;;
5219;SDS011;2629;50.768;7.308;2022-09-12T13:54:43;3.53;;;2.63;;
5219;SDS011;2629;50.768;7.308;2022-09-12T13:57:25;3.40;;;2.50;;
5219;SDS011;2629;50.768;7.308;2022-09-12T13:59:56;4.55;;;2.30;;
5219;SDS011;2629;50.768;7.308;2022-09-12T14:02:26;6.28;;;2.67;;
5219;SDS011;2629;50.768;7.308;2022-09-12T14:04:57;3.50;;;2.30;;
5219;SDS011;2629;50.768;7.308;2022-09-12T14:07:45;3.72;;;2.30;;
5219;SDS011;2629;50.768;7.308;2022-09-12T14:10:21;5.80;;;2.50;;
5219;SDS011;2629;50.768;7.308;2022-09-12T14:12:51;3.30;;;2.28;;
5219;SDS011;2629;50.768;7.308;2022-09-12T14:15:25;3.63;;;2.15;;
5219;SDS011;2629;50.768;7.308;2022-09-12T14:17:55;3.83;;;2.65;;
5219;SDS011;2629;50.768;7.308;2022-09-12T14:20:27;3.83;;;2.33;;
5219;SDS011;2629;50.768;7.308;2022-09-12T14:22:58;4.25;;;2.33;;
5219;SDS011;2629;50.768;7.308;2022-09-12T14:25:28;3.95;;;2.50;;
5219;SDS011;2629;50.768;7.308;2022-09-12T14:28:00;3.47;;;2.60;;
5219;SDS011;2629;50.768;7.308;2022-09-12T14:30:31;3.78;;;2.28;;
5219;SDS011;2629;50.768;7.308;2022-09-12T14:36:06;5.15;;;2.80;;
5219;SDS011;2629;50.768;7.308;2022-09-12T14:38:36;3.83;;;2.70;;
5219;SDS011;2629;50.768;7.308;2022-09-12T14:41:08;5.28;;;2.38;;
5219;SDS011;2629;50.768;7.308;2022-09-12T14:43:37;3.90;;;2.75;;
5219;SDS011;2629;50.768;7.308;2022-09-12T14:46:13;3.17;;;2.20;;
5219;SDS011;2629;50.768;7.308;2022-09-12T14:48:45;4.63;;;2.75;;
5219;SDS011;2629;50.768;7.308;2022-09-12T14:51:17;4.10;;;2.85;;
5219;SDS011;2629;50.768;7.308;2022-09-12T14:53:48;3.45;;;2.40;;
5219;SDS011;2629;50.768;7.308;2022-09-12T14:56:19;4.13;;;2.78;;
5219;SDS011;2629;50.768;7.308;2022-09-12T14:58:48;5.00;;;2.38;;
5219;SDS011;2629;50.768;7.308;2022-09-12T15:01:23;4.00;;;3.10;;
5219;SDS011;2629;50.768;7.308;2022-09-12T15:03:54;3.30;;;2.40;;
5219;SDS011;2629;50.768;7.308;2022-09-12T15:06:25;4.00;;;2.47;;
5219;SDS011;2629;50.768;7.308;2022-09-12T15:08:56;4.72;;;2.83;;
5219;SDS011;2629;50.768;7.308;2022-09-12T15:11:25;3.40;;;2.20;;
5219;SDS011;2629;50.768;7.308;2022-09-12T15:13:53;5.82;;;2.70;;
5219;SDS011;2629;50.768;7.308;2022-09-12T15:16:24;3.40;;;2.30;;
5219;SDS011;2629;50.768;7.308;2022-09-12T15:18:52;6.53;;;2.70;;
5219;SDS011;2629;50.768;7.308;2022-09-12T15:21:21;3.65;;;2.60;;
5219;SDS011;2629;50.768;7.308;2022-09-12T15:23:50;3.85;;;2.75;;
5219;SDS011;2629;50.768;7.308;2022-09-12T15:26:20;4.28;;;2.70;;
5219;SDS011;2629;50.768;7.308;2022-09-12T15:28:49;4.53;;;3.10;;
5219;SDS011;2629;50.768;7.308;2022-09-12T15:31:21;5.57;;;3.03;;
5219;SDS011;2629;50.768;7.308;2022-09-12T15:33:52;5.18;;;2.85;;
5219;SDS011;2629;50.768;7.308;2022-09-12T15:36:22;5.35;;;2.80;;
5219;SDS011;2629;50.768;7.308;2022-09-12T15:38:51;3.43;;;2.70;;
5219;SDS011;2629;50.768;7.308;2022-09-12T15:41:20;4.40;;;3.00;;
5219;SDS011;2629;50.768;7.308;2022-09-12T15:43:50;4.97;;;2.73;;
5219;SDS011;2629;50.768;7.308;2022-09-12T15:46:19;3.47;;;2.63;;
5219;SDS011;2629;50.768;7.308;2022-09-12T15:48:47;4.57;;;2.77;;
5219;SDS011;2629;50.768;7.308;2022-09-12T15:51:18;4.73;;;2.33;;